Terminal Aerodrome Forecast
Issued by NWS

Home | Current Version | Previous Version | Text Only | Print | Product List | Glossary Off
Versions: 1 2 3 4 5 6 7 8 9 10 11 12 13 14 15 16 17 18

000
FTUS43 KBIS 281130
TAFMOT
TAF
KMOT 281130Z 2812/2912 28008KT P6SM SKC
     FM281500 32012KT P6SM SKC
     FM290100 30005KT P6SM SKC
     FM290600 25007KT P6SM SCT100=

USA.gov is the U.S. government's official web portal to all federal, state and local government web resources and services.